createdAt,value
2023-03-01T00:01:52.270Z,-2.78
2023-03-01T00:04:18.660Z,-2.88
2023-03-01T00:06:47.244Z,-2.81
2023-03-01T00:09:13.597Z,-2.85
2023-03-01T00:11:39.956Z,-2.96
2023-03-01T00:14:07.733Z,-2.95
2023-03-01T00:16:37.295Z,-3.00
2023-03-01T00:19:03.668Z,-3.04
2023-03-01T00:21:30.013Z,-3.09
2023-03-01T00:23:56.386Z,-3.13
2023-03-01T00:26:22.725Z,-3.07
2023-03-01T00:28:49.107Z,-3.15
2023-03-01T00:31:15.437Z,-3.17
2023-03-01T00:33:41.790Z,-3.17
2023-03-01T00:36:08.175Z,-3.15
2023-03-01T00:38:34.489Z,-3.18
2023-03-01T00:41:00.847Z,-3.20
2023-03-01T00:43:27.186Z,-3.24
2023-03-01T00:45:53.537Z,-3.34
2023-03-01T00:48:19.908Z,-3.32
2023-03-01T00:50:46.255Z,-3.28
2023-03-01T00:53:12.597Z,-3.26
2023-03-01T00:55:39.004Z,-3.39
2023-03-01T00:58:05.341Z,-3.42
2023-03-01T01:00:31.705Z,-3.35
2023-03-01T01:02:58.071Z,-3.34
2023-03-01T01:05:24.448Z,-3.38
2023-03-01T01:07:50.876Z,-3.42
2023-03-01T01:10:22.029Z,-3.47
2023-03-01T01:12:48.378Z,-3.45
2023-03-01T01:15:16.730Z,-3.49
2023-03-01T01:17:43.054Z,-3.51
2023-03-01T01:20:09.451Z,-3.49
2023-03-01T01:22:35.792Z,-3.48
2023-03-01T01:25:02.180Z,-3.56
2023-03-01T01:27:28.513Z,-3.56
2023-03-01T01:29:54.903Z,-3.49
2023-03-01T01:32:21.266Z,-3.50
2023-03-01T01:34:47.779Z,-3.57
2023-03-01T01:37:14.179Z,-3.53
2023-03-01T01:39:40.529Z,-3.56
2023-03-01T01:42:06.885Z,-3.56
2023-03-01T01:44:33.230Z,-3.61
2023-03-01T01:46:59.566Z,-3.57
2023-03-01T01:49:25.900Z,-3.56
2023-03-01T01:51:52.253Z,-3.63
2023-03-01T01:54:18.599Z,-3.57
2023-03-01T01:56:44.960Z,-3.53
2023-03-01T01:59:11.293Z,-3.48
2023-03-01T02:01:37.624Z,-3.59
2023-03-01T02:04:03.969Z,-3.68
2023-03-01T02:06:30.686Z,-3.73
2023-03-01T02:08:57.254Z,-3.87
2023-03-01T02:11:23.572Z,-3.76
2023-03-01T02:13:50.311Z,-3.70
2023-03-01T02:16:16.698Z,-3.79
2023-03-01T02:18:43.118Z,-3.82
2023-03-01T02:21:09.475Z,-3.74
2023-03-01T02:23:35.836Z,-3.74
2023-03-01T02:26:02.171Z,-3.70
2023-03-01T02:28:28.508Z,-3.71
2023-03-01T02:31:13.867Z,-3.95
2023-03-01T02:33:40.247Z,-3.93
2023-03-01T02:36:06.574Z,-4.00
2023-03-01T02:38:32.972Z,-3.92
2023-03-01T02:40:59.299Z,-3.96
2023-03-01T02:43:25.640Z,-3.99
2023-03-01T02:45:52.094Z,-4.05
2023-03-01T02:48:18.636Z,-4.04
2023-03-01T02:50:45.025Z,-4.03
2023-03-01T02:53:11.383Z,-4.14
2023-03-01T02:55:37.692Z,-4.23
2023-03-01T02:58:04.079Z,-4.28
2023-03-01T03:00:30.539Z,-4.19
2023-03-01T03:02:58.275Z,-4.17
2023-03-01T03:05:24.838Z,-4.28
2023-03-01T03:07:51.224Z,-4.38
2023-03-01T03:10:17.557Z,-4.45
2023-03-01T03:12:43.943Z,-4.46
2023-03-01T03:15:10.285Z,-4.41
2023-03-01T03:17:36.644Z,-4.29
2023-03-01T03:20:04.266Z,-4.25
2023-03-01T03:22:30.766Z,-4.20
2023-03-01T03:24:57.110Z,-4.27
2023-03-01T03:27:23.479Z,-4.25
2023-03-01T03:29:50.502Z,-4.19
2023-03-01T03:32:16.848Z,-4.27
2023-03-01T03:34:43.247Z,-4.32
2023-03-01T03:37:29.595Z,-4.47
2023-03-01T03:39:55.999Z,-4.53
2023-03-01T03:42:23.100Z,-4.44
2023-03-01T03:44:49.474Z,-4.40
2023-03-01T03:47:15.833Z,-4.47
2023-03-01T03:49:42.159Z,-4.52
2023-03-01T03:52:14.437Z,-4.54
2023-03-01T03:54:40.829Z,-4.47
2023-03-01T03:57:07.238Z,-4.48
2023-03-01T03:59:33.610Z,-4.51
2023-03-01T04:02:00.187Z,-4.68
2023-03-01T04:04:26.629Z,-4.61
2023-03-01T04:06:52.957Z,-4.61
2023-03-01T04:09:19.293Z,-4.68
2023-03-01T04:11:45.665Z,-4.71
2023-03-01T04:14:12.083Z,-4.63
2023-03-01T04:16:38.460Z,-4.70
2023-03-01T04:19:07.481Z,-4.78
2023-03-01T04:21:33.911Z,-4.80
2023-03-01T04:24:00.354Z,-4.78
2023-03-01T04:26:28.095Z,-4.84
2023-03-01T04:28:54.456Z,-4.76
2023-03-01T04:31:22.515Z,-4.72
2023-03-01T04:33:49.096Z,-4.67
2023-03-01T04:36:15.535Z,-4.69
2023-03-01T04:38:41.943Z,-4.77
2023-03-01T04:41:08.320Z,-4.79
2023-03-01T04:43:35.220Z,-4.74
2023-03-01T04:46:03.945Z,-4.73
2023-03-01T04:48:30.358Z,-4.82
2023-03-01T04:50:56.810Z,-4.82
2023-03-01T04:53:23.166Z,-4.77
2023-03-01T04:55:49.469Z,-4.86
2023-03-01T04:58:15.802Z,-4.83
2023-03-01T05:00:42.143Z,-4.84
2023-03-01T05:03:08.464Z,-4.77
2023-03-01T05:05:34.872Z,-4.84
2023-03-01T05:08:01.243Z,-4.81
2023-03-01T05:10:27.615Z,-4.91
2023-03-01T05:12:54.130Z,-4.82
2023-03-01T05:15:22.803Z,-4.78
2023-03-01T05:17:49.164Z,-4.76
2023-03-01T05:20:15.551Z,-4.98
2023-03-01T05:22:41.940Z,-4.95
2023-03-01T05:25:08.358Z,-4.88
2023-03-01T05:27:34.707Z,-4.90
2023-03-01T05:30:14.358Z,-4.95
2023-03-01T05:32:40.790Z,-5.01
2023-03-01T05:35:07.142Z,-4.94
2023-03-01T05:37:33.494Z,-5.05
2023-03-01T05:39:59.789Z,-4.98
2023-03-01T05:42:26.130Z,-5.11
2023-03-01T05:44:52.526Z,-5.19
2023-03-01T05:47:18.916Z,-5.08
2023-03-01T05:49:45.251Z,-4.98
2023-03-01T05:52:11.621Z,-4.87
2023-03-01T05:54:37.950Z,-4.87
2023-03-01T05:57:04.292Z,-4.84
2023-03-01T05:59:30.890Z,-4.95
2023-03-01T06:01:57.292Z,-4.99
2023-03-01T06:04:23.671Z,-5.04
2023-03-01T06:06:50.140Z,-5.05
2023-03-01T06:09:16.848Z,-4.95
2023-03-01T06:11:43.195Z,-4.87
2023-03-01T06:14:09.588Z,-4.95
2023-03-01T06:16:35.994Z,-4.94
2023-03-01T06:19:02.414Z,-4.79
2023-03-01T06:21:28.796Z,-4.71
2023-03-01T06:23:55.246Z,-4.68
2023-03-01T06:26:21.666Z,-4.80
2023-03-01T06:28:48.016Z,-4.65
2023-03-01T06:31:14.502Z,-4.59
2023-03-01T06:33:40.929Z,-4.53
2023-03-01T06:36:07.326Z,-4.46
2023-03-01T06:38:33.666Z,-4.40
2023-03-01T06:41:00.117Z,-4.35
2023-03-01T06:43:26.477Z,-4.25
2023-03-01T06:45:52.821Z,-4.08
2023-03-01T06:48:19.179Z,-4.13
2023-03-01T06:50:45.643Z,-4.27
2023-03-01T06:53:12.099Z,-4.41
2023-03-01T06:55:38.454Z,-4.72
2023-03-01T06:58:04.849Z,-4.61
2023-03-01T07:00:31.269Z,-4.45
2023-03-01T07:02:57.629Z,-4.46
2023-03-01T07:05:24.018Z,-4.28
2023-03-01T07:07:50.356Z,-4.02
2023-03-01T07:10:16.703Z,-3.86
2023-03-01T07:12:43.038Z,-3.74
2023-03-01T07:15:10.518Z,-3.78
2023-03-01T07:17:36.887Z,-3.83
2023-03-01T07:20:03.277Z,-3.71
2023-03-01T07:22:29.654Z,-3.48
2023-03-01T07:24:56.044Z,-3.25
2023-03-01T07:27:22.364Z,-3.11
2023-03-01T07:29:48.748Z,-3.01
2023-03-01T07:32:15.160Z,-2.68
2023-03-01T07:34:41.595Z,-2.69
2023-03-01T07:37:08.029Z,-2.68
2023-03-01T07:39:34.395Z,-2.40
2023-03-01T07:42:00.789Z,-1.90
2023-03-01T07:44:27.213Z,-1.65
2023-03-01T07:46:57.425Z,-1.82
2023-03-01T07:49:23.948Z,-2.07
2023-03-01T07:51:50.354Z,-2.23
2023-03-01T07:54:16.712Z,-1.73
2023-03-01T07:56:43.072Z,-1.78
2023-03-01T07:59:09.481Z,-1.57
2023-03-01T08:01:35.862Z,-1.72
2023-03-01T08:04:02.868Z,-1.50
2023-03-01T08:06:29.483Z,-1.66
2023-03-01T08:08:56.553Z,-1.32
2023-03-01T08:11:22.974Z,-1.05
2023-03-01T08:13:51.394Z,-1.03
2023-03-01T08:16:18.751Z,-1.43
2023-03-01T08:18:45.151Z,-1.06
2023-03-01T08:21:11.523Z,-0.95
2023-03-01T08:23:37.860Z,-1.10
2023-03-01T08:26:04.419Z,-0.58
2023-03-01T08:28:30.746Z,-0.65
2023-03-01T08:30:57.100Z,-0.13
2023-03-01T08:33:23.535Z,-0.49
2023-03-01T08:35:49.964Z,-0.63
2023-03-01T08:38:16.452Z,-0.34
2023-03-01T08:40:42.781Z,-0.69
2023-03-01T08:43:09.114Z,-0.21
2023-03-01T08:45:35.704Z,-0.36
2023-03-01T08:48:02.030Z,0.30
2023-03-01T08:50:28.426Z,0.60
2023-03-01T08:52:54.766Z,0.57
2023-03-01T08:55:21.172Z,0.67
2023-03-01T08:57:47.511Z,0.62
2023-03-01T09:00:16.042Z,0.01
2023-03-01T09:02:42.405Z,0.60
2023-03-01T09:05:08.832Z,0.84
2023-03-01T09:07:35.245Z,0.86
2023-03-01T09:10:01.581Z,1.12
2023-03-01T09:12:28.003Z,1.18
2023-03-01T09:14:54.369Z,1.54
2023-03-01T09:17:22.718Z,1.66
2023-03-01T09:19:49.703Z,1.11
2023-03-01T09:22:16.155Z,0.96
2023-03-01T09:24:42.674Z,1.59
2023-03-01T09:27:09.890Z,1.75
2023-03-01T09:29:36.222Z,2.22
2023-03-01T09:32:02.622Z,1.54
2023-03-01T09:34:29.118Z,1.23
2023-03-01T09:36:55.441Z,1.62
2023-03-01T09:39:21.824Z,1.77
2023-03-01T09:41:48.226Z,1.84
2023-03-01T09:44:14.715Z,2.62
2023-03-01T09:46:41.069Z,3.03
2023-03-01T09:49:07.421Z,2.67
2023-03-01T09:51:33.742Z,2.47
2023-03-01T09:54:01.944Z,3.24
2023-03-01T09:56:28.389Z,3.41
2023-03-01T09:58:55.022Z,3.84
2023-03-01T10:01:21.472Z,3.10
2023-03-01T10:03:47.859Z,2.81
2023-03-01T10:06:27.371Z,1.98
2023-03-01T10:08:58.784Z,3.06
2023-03-01T10:11:25.484Z,3.18
2023-03-01T10:13:54.040Z,3.99
2023-03-01T10:16:21.962Z,3.81
2023-03-01T10:18:48.380Z,4.11
2023-03-01T10:21:14.723Z,4.25
2023-03-01T10:23:41.053Z,4.16
2023-03-01T10:26:07.418Z,4.29
2023-03-01T10:28:33.874Z,4.44
2023-03-01T10:31:00.352Z,5.15
2023-03-01T10:33:26.746Z,4.79
2023-03-01T10:35:53.148Z,4.54
2023-03-01T10:38:19.939Z,5.09
2023-03-01T10:40:46.293Z,4.94
2023-03-01T10:43:12.965Z,4.93
2023-03-01T10:45:39.343Z,4.79
2023-03-01T10:48:05.698Z,4.86
2023-03-01T10:50:32.067Z,4.97
2023-03-01T10:52:58.410Z,4.93
2023-03-01T10:55:25.259Z,4.52
2023-03-01T10:57:51.962Z,4.06
2023-03-01T11:00:21.830Z,4.49
2023-03-01T11:02:48.350Z,4.41
2023-03-01T11:05:14.698Z,4.90
2023-03-01T11:07:41.089Z,5.10
2023-03-01T11:10:07.401Z,5.06
2023-03-01T11:12:34.434Z,5.00
2023-03-01T11:15:00.765Z,5.30
2023-03-01T11:17:27.099Z,5.44
2023-03-01T11:20:02.190Z,5.18
2023-03-01T11:22:29.149Z,5.03
2023-03-01T11:25:09.088Z,4.81
2023-03-01T11:27:39.389Z,5.02
2023-03-01T11:30:06.480Z,5.20
2023-03-01T11:32:32.844Z,5.34
2023-03-01T11:34:59.336Z,5.35
2023-03-01T11:37:26.070Z,4.97
2023-03-01T11:39:53.234Z,5.13
2023-03-01T11:42:19.774Z,5.40
2023-03-01T11:44:46.169Z,5.32
2023-03-01T11:47:12.607Z,5.80
2023-03-01T11:49:39.008Z,5.61
2023-03-01T11:52:05.332Z,5.65
2023-03-01T11:54:31.685Z,5.88
2023-03-01T11:56:58.100Z,5.96
2023-03-01T11:59:24.515Z,5.59
2023-03-01T12:01:51.098Z,5.29
2023-03-01T12:04:17.511Z,5.34
2023-03-01T12:06:43.890Z,5.99
2023-03-01T12:09:10.229Z,5.56
2023-03-01T12:11:36.642Z,5.37
2023-03-01T12:14:03.355Z,5.71
2023-03-01T12:16:38.856Z,5.38
2023-03-01T12:19:05.495Z,5.22
2023-03-01T12:21:32.284Z,5.17
2023-03-01T12:23:58.799Z,5.29
2023-03-01T12:26:25.126Z,4.79
2023-03-01T12:28:53.128Z,5.11
2023-03-01T12:31:21.958Z,4.88
2023-03-01T12:33:48.315Z,5.13
2023-03-01T12:36:14.736Z,5.12
2023-03-01T12:38:41.161Z,5.08
2023-03-01T12:41:07.468Z,5.06
2023-03-01T12:43:34.326Z,5.10
2023-03-01T12:46:00.779Z,5.12
2023-03-01T12:48:27.140Z,5.19
2023-03-01T12:50:53.437Z,5.32
2023-03-01T12:53:19.766Z,5.07
2023-03-01T12:55:46.096Z,4.90
2023-03-01T12:58:12.504Z,4.77
2023-03-01T13:00:38.819Z,4.97
2023-03-01T13:03:05.179Z,4.96
2023-03-01T13:05:31.621Z,5.07
2023-03-01T13:07:58.036Z,5.05
2023-03-01T13:10:24.358Z,5.17
2023-03-01T13:12:50.730Z,5.29
2023-03-01T13:15:17.065Z,5.37
2023-03-01T13:17:43.426Z,5.18
2023-03-01T13:20:09.933Z,5.21
2023-03-01T13:22:46.879Z,4.96
2023-03-01T13:25:19.719Z,5.09
2023-03-01T13:27:46.673Z,5.34
2023-03-01T13:30:14.126Z,5.41
2023-03-01T13:32:44.776Z,5.39
2023-03-01T13:35:11.519Z,5.33
2023-03-01T13:37:38.584Z,5.62
2023-03-01T13:40:05.971Z,5.66
2023-03-01T13:42:34.625Z,5.54
2023-03-01T13:45:01.048Z,5.51
2023-03-01T13:47:27.408Z,5.46
2023-03-01T13:49:54.473Z,5.49
2023-03-01T13:52:21.150Z,5.30
2023-03-01T13:54:47.464Z,5.41
2023-03-01T13:57:13.807Z,5.67
2023-03-01T13:59:40.199Z,5.52
2023-03-01T14:02:06.514Z,5.52
2023-03-01T14:04:33.337Z,5.40
2023-03-01T14:06:59.668Z,5.40
2023-03-01T14:09:26.056Z,5.34
2023-03-01T14:11:52.420Z,5.37
2023-03-01T14:14:18.860Z,5.38
2023-03-01T14:16:46.011Z,5.43
2023-03-01T14:19:16.051Z,5.40
2023-03-01T14:21:44.365Z,5.52
2023-03-01T14:24:10.708Z,5.46
2023-03-01T14:26:37.045Z,5.52
2023-03-01T14:29:03.376Z,5.44
2023-03-01T14:31:29.727Z,5.66
2023-03-01T14:33:56.063Z,5.44
2023-03-01T14:36:22.434Z,5.47
2023-03-01T14:38:48.849Z,5.39
2023-03-01T14:41:16.282Z,5.36
2023-03-01T14:43:42.636Z,5.43
2023-03-01T14:46:09.056Z,5.36
2023-03-01T14:48:35.404Z,5.42
2023-03-01T14:51:01.816Z,5.35
2023-03-01T14:53:28.135Z,5.48
2023-03-01T14:55:54.510Z,5.24
2023-03-01T14:58:22.479Z,5.33
2023-03-01T15:00:48.779Z,5.29
2023-03-01T15:03:15.230Z,5.44
2023-03-01T15:05:41.608Z,5.55
2023-03-01T15:08:07.941Z,5.44
2023-03-01T15:10:34.325Z,5.43
2023-03-01T15:13:00.639Z,5.40
2023-03-01T15:15:31.029Z,5.52
2023-03-01T15:17:57.404Z,5.47
2023-03-01T15:20:26.701Z,5.49
2023-03-01T15:22:53.044Z,5.53
2023-03-01T15:25:19.429Z,5.48
2023-03-01T15:27:45.766Z,5.48
2023-03-01T15:30:12.083Z,5.56
2023-03-01T15:32:40.274Z,5.56
2023-03-01T15:35:06.600Z,5.53
2023-03-01T15:37:32.913Z,5.44
2023-03-01T15:39:59.246Z,5.33
2023-03-01T15:42:25.552Z,5.35
2023-03-01T15:44:51.872Z,5.42
2023-03-01T15:47:18.218Z,5.44
2023-03-01T15:49:54.352Z,5.38
2023-03-01T15:52:21.698Z,5.20
2023-03-01T15:54:48.036Z,5.20
2023-03-01T15:57:15.958Z,5.17
2023-03-01T15:59:42.929Z,5.26
2023-03-01T16:02:10.130Z,5.11
2023-03-01T16:04:36.461Z,5.17
2023-03-01T16:07:02.813Z,5.09
2023-03-01T16:09:29.199Z,5.13
2023-03-01T16:11:55.522Z,5.22
2023-03-01T16:14:21.969Z,5.19
2023-03-01T16:16:49.142Z,5.14
2023-03-01T16:19:15.766Z,5.11
2023-03-01T16:21:43.230Z,5.03
2023-03-01T16:24:09.639Z,5.02
2023-03-01T16:26:35.943Z,5.04
2023-03-01T16:29:02.273Z,4.99
2023-03-01T16:31:30.116Z,4.86
2023-03-01T16:33:57.032Z,4.87
2023-03-01T16:36:24.856Z,4.74
2023-03-01T16:38:51.195Z,4.68
2023-03-01T16:41:17.551Z,4.60
2023-03-01T16:43:43.924Z,4.54
2023-03-01T16:46:10.300Z,4.47
2023-03-01T16:48:36.647Z,4.48
2023-03-01T16:51:03.021Z,5.18
2023-03-01T16:53:29.430Z,5.08
2023-03-01T16:55:55.790Z,5.22
2023-03-01T16:58:22.190Z,4.90
2023-03-01T17:00:48.662Z,4.72
2023-03-01T17:03:15.129Z,4.56
2023-03-01T17:05:41.488Z,4.43
2023-03-01T17:08:11.452Z,4.20
2023-03-01T17:10:37.781Z,3.99
2023-03-01T17:13:04.817Z,4.03
2023-03-01T17:15:31.136Z,4.00
2023-03-01T17:17:57.607Z,4.18
2023-03-01T17:20:23.969Z,4.23
2023-03-01T17:22:50.489Z,4.29
2023-03-01T17:25:16.844Z,4.07
2023-03-01T17:27:43.166Z,3.58
2023-03-01T17:30:09.503Z,3.41
2023-03-01T17:32:36.025Z,3.56
2023-03-01T17:35:02.417Z,3.33
2023-03-01T17:37:28.735Z,3.20
2023-03-01T17:39:55.168Z,3.01
2023-03-01T17:42:21.535Z,2.78
2023-03-01T17:44:48.055Z,2.65
2023-03-01T17:47:14.787Z,2.50
2023-03-01T17:49:41.329Z,2.46
2023-03-01T17:52:07.726Z,2.34
2023-03-01T17:54:34.037Z,2.54
2023-03-01T17:57:00.339Z,2.70
2023-03-01T17:59:31.668Z,2.72
2023-03-01T18:01:58.330Z,2.69
2023-03-01T18:04:24.704Z,2.67
2023-03-01T18:06:51.116Z,2.57
2023-03-01T18:09:17.512Z,2.63
2023-03-01T18:11:46.726Z,2.70
2023-03-01T18:14:13.916Z,2.47
2023-03-01T18:16:40.376Z,2.48
2023-03-01T18:19:06.965Z,2.38
2023-03-01T18:21:34.175Z,2.26
2023-03-01T18:24:00.864Z,2.12
2023-03-01T18:26:28.049Z,1.87
2023-03-01T18:28:54.638Z,1.86
2023-03-01T18:31:22.486Z,1.76
2023-03-01T18:33:49.188Z,1.86
2023-03-01T18:36:15.514Z,1.96
2023-03-01T18:38:42.109Z,1.82
2023-03-01T18:41:08.556Z,1.89
2023-03-01T18:43:35.159Z,1.78
2023-03-01T18:46:01.857Z,1.63
2023-03-01T18:48:30.134Z,1.51
2023-03-01T18:50:56.674Z,1.46
2023-03-01T18:53:23.247Z,1.53
2023-03-01T18:55:49.621Z,1.64
2023-03-01T18:58:16.147Z,1.50
2023-03-01T19:00:43.982Z,1.31
2023-03-01T19:03:12.901Z,1.38
2023-03-01T19:05:41.202Z,0.99
2023-03-01T19:08:09.396Z,1.23
2023-03-01T19:10:37.306Z,1.02
2023-03-01T19:13:04.060Z,1.02
2023-03-01T19:15:30.685Z,1.20
2023-03-01T19:17:59.171Z,1.19
2023-03-01T19:20:26.706Z,1.09
2023-03-01T19:22:54.253Z,1.17
2023-03-01T19:25:20.886Z,1.13
2023-03-01T19:27:49.645Z,1.01
2023-03-01T19:30:16.751Z,0.97
2023-03-01T19:32:43.783Z,0.84
2023-03-01T19:35:11.197Z,1.03
2023-03-01T19:37:39.050Z,1.05
2023-03-01T19:40:06.134Z,0.89
2023-03-01T19:42:32.714Z,0.76
2023-03-01T19:45:02.151Z,0.89
2023-03-01T19:47:31.202Z,0.83
2023-03-01T19:49:59.278Z,0.69
2023-03-01T19:52:26.545Z,0.58
2023-03-01T19:54:55.837Z,0.56
2023-03-01T19:57:31.347Z,0.49
2023-03-01T19:59:58.413Z,0.49
2023-03-01T20:02:27.916Z,0.35
2023-03-01T20:04:56.926Z,0.35
2023-03-01T20:07:25.337Z,0.21
2023-03-01T20:09:53.008Z,0.25
2023-03-01T20:12:19.967Z,0.19
2023-03-01T20:14:48.993Z,-0.05
2023-03-01T20:17:16.584Z,-0.01
2023-03-01T20:19:43.584Z,-0.13
2023-03-01T20:22:12.262Z,-0.24
2023-03-01T20:24:40.505Z,-0.20
2023-03-01T20:27:09.166Z,-0.19
2023-03-01T20:29:36.403Z,-0.13
2023-03-01T20:32:04.108Z,-0.09
2023-03-01T20:34:31.822Z,-0.19
2023-03-01T20:36:59.295Z,-0.18
2023-03-01T20:39:27.212Z,-0.30
2023-03-01T20:41:55.760Z,-0.11
2023-03-01T20:44:24.181Z,-0.53
2023-03-01T20:46:52.804Z,-0.54
2023-03-01T20:49:22.479Z,-0.45
2023-03-01T20:51:49.904Z,-0.37
2023-03-01T20:54:16.869Z,-0.36
2023-03-01T20:56:45.162Z,-0.39
2023-03-01T20:59:12.653Z,-0.42
2023-03-01T21:01:40.141Z,-0.51
2023-03-01T21:04:07.728Z,-0.53
2023-03-01T21:06:34.881Z,-0.56
2023-03-01T21:09:02.159Z,-0.52
2023-03-01T21:11:29.519Z,-0.55
2023-03-01T21:13:56.735Z,-0.64
2023-03-01T21:16:24.130Z,-0.59
2023-03-01T21:18:51.175Z,-0.69
2023-03-01T21:21:18.030Z,-0.62
2023-03-01T21:23:45.063Z,-0.56
2023-03-01T21:26:12.145Z,-0.68
2023-03-01T21:28:38.667Z,-0.79
2023-03-01T21:31:05.210Z,-0.75
2023-03-01T21:33:31.765Z,-0.72
2023-03-01T21:35:58.441Z,-0.79
2023-03-01T21:38:25.086Z,-0.77
2023-03-01T21:40:51.488Z,-0.70
2023-03-01T21:43:17.833Z,-0.73
2023-03-01T21:45:44.276Z,-0.67
2023-03-01T21:48:10.718Z,-0.82
2023-03-01T21:50:37.062Z,-0.80
2023-03-01T21:53:05.365Z,-0.70
2023-03-01T21:55:31.768Z,-0.68
2023-03-01T21:57:58.099Z,-0.70
2023-03-01T22:00:24.433Z,-0.86
2023-03-01T22:02:50.831Z,-0.90
2023-03-01T22:05:17.237Z,-0.93
2023-03-01T22:07:43.562Z,-0.85
2023-03-01T22:10:09.875Z,-0.75
2023-03-01T22:12:36.256Z,-0.73
2023-03-01T22:15:02.557Z,-0.78
2023-03-01T22:17:28.874Z,-1.08
2023-03-01T22:19:55.202Z,-1.14
2023-03-01T22:22:21.492Z,-1.08
2023-03-01T22:24:47.806Z,-0.95
2023-03-01T22:27:14.117Z,-0.99
2023-03-01T22:29:40.443Z,-1.06
2023-03-01T22:32:07.056Z,-1.05
2023-03-01T22:34:34.756Z,-1.09
2023-03-01T22:37:02.052Z,-1.13
2023-03-01T22:39:28.442Z,-1.14
2023-03-01T22:41:54.736Z,-1.03
2023-03-01T22:44:21.621Z,-1.01
2023-03-01T22:46:47.975Z,-1.01
2023-03-01T22:49:14.334Z,-1.13
2023-03-01T22:51:40.673Z,-1.15
2023-03-01T22:54:06.978Z,-1.33
2023-03-01T22:56:33.696Z,-1.39
2023-03-01T22:59:00.252Z,-1.39
2023-03-01T23:01:26.592Z,-1.43
2023-03-01T23:03:52.904Z,-1.45
2023-03-01T23:06:19.261Z,-1.47
2023-03-01T23:08:45.570Z,-1.49
2023-03-01T23:11:12.183Z,-1.49
2023-03-01T23:13:38.519Z,-1.49
2023-03-01T23:16:04.815Z,-1.59
2023-03-01T23:18:31.130Z,-1.78
2023-03-01T23:20:57.478Z,-1.61
2023-03-01T23:23:23.810Z,-1.74
2023-03-01T23:25:52.580Z,-1.66
2023-03-01T23:28:18.919Z,-1.67
2023-03-01T23:30:45.383Z,-1.67
2023-03-01T23:33:11.784Z,-1.76
2023-03-01T23:35:38.183Z,-1.86
2023-03-01T23:38:04.523Z,-1.68
2023-03-01T23:40:30.900Z,-1.71
2023-03-01T23:42:57.215Z,-1.85
2023-03-01T23:45:23.564Z,-1.84
2023-03-01T23:47:49.868Z,-1.89
2023-03-01T23:50:16.169Z,-1.88
2023-03-01T23:52:42.578Z,-1.90
2023-03-01T23:55:08.863Z,-1.94
2023-03-01T23:57:35.189Z,-2.10
